sensor_id;sensor_type;location;lat;lon;timestamp;P1;durP1;ratioP1;P2;durP2;ratioP2
10410;SDS011;5251;52.112;8.606;2023-02-28T00:01:22;3.80;;;3.00;;
10410;SDS011;5251;52.112;8.606;2023-02-28T00:03:48;5.90;;;3.53;;
10410;SDS011;5251;52.112;8.606;2023-02-28T00:06:13;4.45;;;3.25;;
10410;SDS011;5251;52.112;8.606;2023-02-28T00:08:39;5.68;;;3.75;;
10410;SDS011;5251;52.112;8.606;2023-02-28T00:11:06;6.20;;;3.45;;
10410;SDS011;5251;52.112;8.606;2023-02-28T00:13:38;5.18;;;3.70;;
10410;SDS011;5251;52.112;8.606;2023-02-28T00:16:12;4.70;;;3.10;;
10410;SDS011;5251;52.112;8.606;2023-02-28T00:18:39;5.03;;;2.95;;
10410;SDS011;5251;52.112;8.606;2023-02-28T00:21:06;5.97;;;3.80;;
10410;SDS011;5251;52.112;8.606;2023-02-28T00:23:31;5.50;;;3.70;;
10410;SDS011;5251;52.112;8.606;2023-02-28T00:25:57;4.70;;;3.75;;
10410;SDS011;5251;52.112;8.606;2023-02-28T00:28:23;6.22;;;3.97;;
10410;SDS011;5251;52.112;8.606;2023-02-28T00:30:49;4.03;;;3.42;;
10410;SDS011;5251;52.112;8.606;2023-02-28T00:33:15;4.85;;;3.67;;
10410;SDS011;5251;52.112;8.606;2023-02-28T00:35:41;7.90;;;4.63;;
10410;SDS011;5251;52.112;8.606;2023-02-28T00:38:07;5.40;;;3.90;;
10410;SDS011;5251;52.112;8.606;2023-02-28T00:40:33;5.82;;;3.83;;
10410;SDS011;5251;52.112;8.606;2023-02-28T00:42:58;7.05;;;4.70;;
10410;SDS011;5251;52.112;8.606;2023-02-28T00:45:24;6.03;;;3.75;;
10410;SDS011;5251;52.112;8.606;2023-02-28T00:47:50;5.55;;;4.30;;
10410;SDS011;5251;52.112;8.606;2023-02-28T00:50:16;7.28;;;4.68;;
10410;SDS011;5251;52.112;8.606;2023-02-28T00:52:43;7.80;;;4.55;;
10410;SDS011;5251;52.112;8.606;2023-02-28T00:55:09;6.13;;;4.57;;
10410;SDS011;5251;52.112;8.606;2023-02-28T00:57:34;6.35;;;4.80;;
10410;SDS011;5251;52.112;8.606;2023-02-28T01:00:00;7.97;;;5.15;;
10410;SDS011;5251;52.112;8.606;2023-02-28T01:02:26;6.50;;;4.32;;
10410;SDS011;5251;52.112;8.606;2023-02-28T01:04:51;6.68;;;4.47;;
10410;SDS011;5251;52.112;8.606;2023-02-28T01:07:17;6.80;;;4.40;;
10410;SDS011;5251;52.112;8.606;2023-02-28T01:09:43;7.03;;;4.88;;
10410;SDS011;5251;52.112;8.606;2023-02-28T01:12:08;8.50;;;4.55;;
10410;SDS011;5251;52.112;8.606;2023-02-28T01:14:34;8.55;;;4.95;;
10410;SDS011;5251;52.112;8.606;2023-02-28T01:17:00;7.35;;;5.10;;
10410;SDS011;5251;52.112;8.606;2023-02-28T01:19:26;7.22;;;4.88;;
10410;SDS011;5251;52.112;8.606;2023-02-28T01:21:52;7.00;;;5.20;;
10410;SDS011;5251;52.112;8.606;2023-02-28T01:24:18;7.70;;;5.28;;
10410;SDS011;5251;52.112;8.606;2023-02-28T01:26:44;7.50;;;5.15;;
10410;SDS011;5251;52.112;8.606;2023-02-28T01:29:09;6.75;;;5.25;;
10410;SDS011;5251;52.112;8.606;2023-02-28T01:31:35;8.43;;;5.75;;
10410;SDS011;5251;52.112;8.606;2023-02-28T01:34:01;6.70;;;5.38;;
10410;SDS011;5251;52.112;8.606;2023-02-28T01:36:27;8.65;;;5.90;;
10410;SDS011;5251;52.112;8.606;2023-02-28T01:38:54;6.97;;;5.85;;
10410;SDS011;5251;52.112;8.606;2023-02-28T01:46:18;7.65;;;5.13;;
10410;SDS011;5251;52.112;8.606;2023-02-28T01:48:54;8.93;;;5.90;;
10410;SDS011;5251;52.112;8.606;2023-02-28T01:51:24;7.68;;;5.15;;
10410;SDS011;5251;52.112;8.606;2023-02-28T01:54:04;7.13;;;5.07;;
10410;SDS011;5251;52.112;8.606;2023-02-28T01:56:38;7.93;;;5.45;;
10410;SDS011;5251;52.112;8.606;2023-02-28T01:59:08;9.63;;;5.28;;
10410;SDS011;5251;52.112;8.606;2023-02-28T02:01:35;6.97;;;5.30;;
10410;SDS011;5251;52.112;8.606;2023-02-28T02:04:01;7.05;;;4.90;;
10410;SDS011;5251;52.112;8.606;2023-02-28T02:06:29;10.75;;;4.97;;
10410;SDS011;5251;52.112;8.606;2023-02-28T02:08:59;6.93;;;5.15;;
10410;SDS011;5251;52.112;8.606;2023-02-28T02:11:25;6.78;;;5.07;;
10410;SDS011;5251;52.112;8.606;2023-02-28T02:14:31;7.38;;;5.15;;
10410;SDS011;5251;52.112;8.606;2023-02-28T02:17:04;6.90;;;5.65;;
10410;SDS011;5251;52.112;8.606;2023-02-28T02:25:53;7.28;;;5.22;;
10410;SDS011;5251;52.112;8.606;2023-02-28T02:40:03;6.85;;;5.00;;
10410;SDS011;5251;52.112;8.606;2023-02-28T02:45:24;8.32;;;5.30;;
10410;SDS011;5251;52.112;8.606;2023-02-28T02:48:00;7.80;;;5.30;;
10410;SDS011;5251;52.112;8.606;2023-02-28T02:50:30;7.25;;;5.10;;
10410;SDS011;5251;52.112;8.606;2023-02-28T02:53:06;6.78;;;5.30;;
10410;SDS011;5251;52.112;8.606;2023-02-28T02:55:34;6.70;;;5.45;;
10410;SDS011;5251;52.112;8.606;2023-02-28T02:58:06;6.03;;;5.10;;
10410;SDS011;5251;52.112;8.606;2023-02-28T03:00:39;6.72;;;5.40;;
10410;SDS011;5251;52.112;8.606;2023-02-28T03:03:08;6.93;;;5.05;;
10410;SDS011;5251;52.112;8.606;2023-02-28T03:05:39;7.82;;;5.70;;
10410;SDS011;5251;52.112;8.606;2023-02-28T03:08:09;7.40;;;5.63;;
10410;SDS011;5251;52.112;8.606;2023-02-28T03:10:37;8.75;;;5.95;;
10410;SDS011;5251;52.112;8.606;2023-02-28T03:16:26;8.27;;;5.82;;
10410;SDS011;5251;52.112;8.606;2023-02-28T03:27:30;8.05;;;5.53;;
10410;SDS011;5251;52.112;8.606;2023-02-28T03:30:05;6.93;;;5.10;;
10410;SDS011;5251;52.112;8.606;2023-02-28T03:32:38;7.57;;;5.55;;
10410;SDS011;5251;52.112;8.606;2023-02-28T03:35:19;7.70;;;5.57;;
10410;SDS011;5251;52.112;8.606;2023-02-28T03:37:48;6.90;;;6.00;;
10410;SDS011;5251;52.112;8.606;2023-02-28T03:40:25;8.93;;;5.90;;
10410;SDS011;5251;52.112;8.606;2023-02-28T03:42:59;8.52;;;5.57;;
10410;SDS011;5251;52.112;8.606;2023-02-28T03:45:35;11.02;;;6.32;;
10410;SDS011;5251;52.112;8.606;2023-02-28T03:48:26;9.45;;;6.35;;
10410;SDS011;5251;52.112;8.606;2023-02-28T03:50:53;8.90;;;5.70;;
10410;SDS011;5251;52.112;8.606;2023-02-28T03:53:27;8.85;;;6.05;;
10410;SDS011;5251;52.112;8.606;2023-02-28T03:56:11;7.43;;;5.53;;
10410;SDS011;5251;52.112;8.606;2023-02-28T04:01:27;7.93;;;5.80;;
10410;SDS011;5251;52.112;8.606;2023-02-28T04:03:55;6.13;;;5.07;;
10410;SDS011;5251;52.112;8.606;2023-02-28T04:06:22;6.93;;;5.82;;
10410;SDS011;5251;52.112;8.606;2023-02-28T04:08:49;8.35;;;5.65;;
10410;SDS011;5251;52.112;8.606;2023-02-28T04:13:48;7.53;;;5.15;;
10410;SDS011;5251;52.112;8.606;2023-02-28T04:16:14;6.20;;;5.25;;
10410;SDS011;5251;52.112;8.606;2023-02-28T04:18:41;7.72;;;5.45;;
10410;SDS011;5251;52.112;8.606;2023-02-28T04:21:08;6.57;;;5.07;;
10410;SDS011;5251;52.112;8.606;2023-02-28T04:23:35;8.82;;;5.47;;
10410;SDS011;5251;52.112;8.606;2023-02-28T04:26:00;6.93;;;5.40;;
10410;SDS011;5251;52.112;8.606;2023-02-28T04:28:26;7.65;;;5.40;;
10410;SDS011;5251;52.112;8.606;2023-02-28T04:30:56;7.20;;;5.03;;
10410;SDS011;5251;52.112;8.606;2023-02-28T04:33:22;6.13;;;4.95;;
10410;SDS011;5251;52.112;8.606;2023-02-28T04:35:48;7.45;;;5.00;;
10410;SDS011;5251;52.112;8.606;2023-02-28T04:38:22;7.72;;;5.07;;
10410;SDS011;5251;52.112;8.606;2023-02-28T04:40:47;6.10;;;5.00;;
10410;SDS011;5251;52.112;8.606;2023-02-28T04:43:13;6.47;;;5.25;;
10410;SDS011;5251;52.112;8.606;2023-02-28T04:45:39;7.47;;;5.40;;
10410;SDS011;5251;52.112;8.606;2023-02-28T04:48:04;7.10;;;5.55;;
10410;SDS011;5251;52.112;8.606;2023-02-28T04:50:30;9.00;;;5.70;;
10410;SDS011;5251;52.112;8.606;2023-02-28T04:52:56;7.82;;;5.82;;
10410;SDS011;5251;52.112;8.606;2023-02-28T04:55:21;8.52;;;5.78;;
10410;SDS011;5251;52.112;8.606;2023-02-28T04:57:47;7.75;;;5.28;;
10410;SDS011;5251;52.112;8.606;2023-02-28T05:00:13;7.75;;;5.90;;
10410;SDS011;5251;52.112;8.606;2023-02-28T05:02:41;6.75;;;5.15;;
10410;SDS011;5251;52.112;8.606;2023-02-28T05:05:07;7.72;;;5.35;;
10410;SDS011;5251;52.112;8.606;2023-02-28T05:07:33;6.68;;;5.20;;
10410;SDS011;5251;52.112;8.606;2023-02-28T05:09:58;8.05;;;5.40;;
10410;SDS011;5251;52.112;8.606;2023-02-28T05:12:24;6.93;;;5.63;;
10410;SDS011;5251;52.112;8.606;2023-02-28T05:14:50;7.40;;;5.75;;
10410;SDS011;5251;52.112;8.606;2023-02-28T05:17:15;7.13;;;5.38;;
10410;SDS011;5251;52.112;8.606;2023-02-28T05:19:41;6.75;;;5.13;;
10410;SDS011;5251;52.112;8.606;2023-02-28T05:22:12;8.15;;;5.60;;
10410;SDS011;5251;52.112;8.606;2023-02-28T05:24:40;6.43;;;5.38;;
10410;SDS011;5251;52.112;8.606;2023-02-28T05:27:07;6.68;;;5.55;;
10410;SDS011;5251;52.112;8.606;2023-02-28T05:29:33;7.15;;;5.60;;
10410;SDS011;5251;52.112;8.606;2023-02-28T05:32:11;8.32;;;6.13;;
10410;SDS011;5251;52.112;8.606;2023-02-28T05:34:37;9.25;;;5.90;;
10410;SDS011;5251;52.112;8.606;2023-02-28T05:37:04;7.00;;;5.93;;
10410;SDS011;5251;52.112;8.606;2023-02-28T05:39:31;11.00;;;6.70;;
10410;SDS011;5251;52.112;8.606;2023-02-28T05:41:57;9.82;;;6.28;;
10410;SDS011;5251;52.112;8.606;2023-02-28T05:44:23;9.02;;;6.60;;
10410;SDS011;5251;52.112;8.606;2023-02-28T05:46:49;9.02;;;6.75;;
10410;SDS011;5251;52.112;8.606;2023-02-28T05:49:14;10.07;;;6.72;;
10410;SDS011;5251;52.112;8.606;2023-02-28T05:51:40;14.00;;;7.80;;
10410;SDS011;5251;52.112;8.606;2023-02-28T05:54:06;13.30;;;7.88;;
10410;SDS011;5251;52.112;8.606;2023-02-28T05:56:32;9.88;;;6.95;;
10410;SDS011;5251;52.112;8.606;2023-02-28T05:59:00;10.45;;;7.05;;
10410;SDS011;5251;52.112;8.606;2023-02-28T06:03:59;9.65;;;6.75;;
10410;SDS011;5251;52.112;8.606;2023-02-28T06:06:27;10.02;;;7.53;;
10410;SDS011;5251;52.112;8.606;2023-02-28T06:08:52;9.07;;;6.90;;
10410;SDS011;5251;52.112;8.606;2023-02-28T06:11:19;9.93;;;6.65;;
10410;SDS011;5251;52.112;8.606;2023-02-28T06:13:45;11.40;;;6.93;;
10410;SDS011;5251;52.112;8.606;2023-02-28T06:16:11;8.43;;;6.82;;
10410;SDS011;5251;52.112;8.606;2023-02-28T06:18:37;9.43;;;6.68;;
10410;SDS011;5251;52.112;8.606;2023-02-28T06:21:03;10.60;;;6.97;;
10410;SDS011;5251;52.112;8.606;2023-02-28T06:23:28;10.50;;;7.10;;
10410;SDS011;5251;52.112;8.606;2023-02-28T06:25:54;9.98;;;7.07;;
10410;SDS011;5251;52.112;8.606;2023-02-28T06:28:23;12.88;;;7.40;;
10410;SDS011;5251;52.112;8.606;2023-02-28T06:30:49;11.93;;;7.50;;
10410;SDS011;5251;52.112;8.606;2023-02-28T06:33:15;9.52;;;6.95;;
10410;SDS011;5251;52.112;8.606;2023-02-28T06:35:43;8.43;;;7.10;;
10410;SDS011;5251;52.112;8.606;2023-02-28T06:38:09;8.82;;;7.22;;
10410;SDS011;5251;52.112;8.606;2023-02-28T06:40:35;8.73;;;7.25;;
10410;SDS011;5251;52.112;8.606;2023-02-28T06:43:02;10.13;;;7.60;;
10410;SDS011;5251;52.112;8.606;2023-02-28T06:45:28;13.32;;;7.65;;
10410;SDS011;5251;52.112;8.606;2023-02-28T06:47:53;10.32;;;7.38;;
10410;SDS011;5251;52.112;8.606;2023-02-28T06:50:19;10.90;;;7.25;;
10410;SDS011;5251;52.112;8.606;2023-02-28T06:52:45;11.13;;;7.85;;
10410;SDS011;5251;52.112;8.606;2023-02-28T06:55:11;10.02;;;7.10;;
10410;SDS011;5251;52.112;8.606;2023-02-28T06:57:37;9.82;;;6.80;;
10410;SDS011;5251;52.112;8.606;2023-02-28T07:00:07;9.10;;;7.45;;
10410;SDS011;5251;52.112;8.606;2023-02-28T07:02:34;9.85;;;7.07;;
10410;SDS011;5251;52.112;8.606;2023-02-28T07:05:00;10.15;;;7.97;;
10410;SDS011;5251;52.112;8.606;2023-02-28T07:07:26;10.50;;;7.50;;
10410;SDS011;5251;52.112;8.606;2023-02-28T07:09:51;9.93;;;7.38;;
10410;SDS011;5251;52.112;8.606;2023-02-28T07:12:17;10.73;;;7.78;;
10410;SDS011;5251;52.112;8.606;2023-02-28T07:14:43;12.02;;;7.35;;
10410;SDS011;5251;52.112;8.606;2023-02-28T07:17:08;9.27;;;7.03;;
10410;SDS011;5251;52.112;8.606;2023-02-28T07:19:36;10.85;;;7.60;;
10410;SDS011;5251;52.112;8.606;2023-02-28T07:22:06;9.73;;;6.93;;
10410;SDS011;5251;52.112;8.606;2023-02-28T07:24:32;11.68;;;7.55;;
10410;SDS011;5251;52.112;8.606;2023-02-28T07:26:58;8.32;;;6.70;;
10410;SDS011;5251;52.112;8.606;2023-02-28T07:29:24;9.18;;;6.95;;
10410;SDS011;5251;52.112;8.606;2023-02-28T07:31:50;8.80;;;6.65;;
10410;SDS011;5251;52.112;8.606;2023-02-28T07:34:18;10.25;;;6.97;;
10410;SDS011;5251;52.112;8.606;2023-02-28T07:36:44;10.57;;;7.28;;
10410;SDS011;5251;52.112;8.606;2023-02-28T07:39:09;10.57;;;7.50;;
10410;SDS011;5251;52.112;8.606;2023-02-28T07:41:35;8.73;;;6.75;;
10410;SDS011;5251;52.112;8.606;2023-02-28T07:44:08;10.23;;;7.30;;
10410;SDS011;5251;52.112;8.606;2023-02-28T07:46:36;9.65;;;6.90;;
10410;SDS011;5251;52.112;8.606;2023-02-28T07:49:02;10.60;;;7.30;;
10410;SDS011;5251;52.112;8.606;2023-02-28T07:51:29;14.15;;;6.93;;
10410;SDS011;5251;52.112;8.606;2023-02-28T07:53:54;9.52;;;7.18;;
10410;SDS011;5251;52.112;8.606;2023-02-28T07:56:21;10.43;;;7.20;;
10410;SDS011;5251;52.112;8.606;2023-02-28T07:58:46;9.68;;;6.97;;
10410;SDS011;5251;52.112;8.606;2023-02-28T08:01:12;8.77;;;7.15;;
10410;SDS011;5251;52.112;8.606;2023-02-28T08:03:38;9.88;;;6.97;;
10410;SDS011;5251;52.112;8.606;2023-02-28T08:06:04;9.40;;;6.80;;
10410;SDS011;5251;52.112;8.606;2023-02-28T08:08:31;8.48;;;6.30;;
10410;SDS011;5251;52.112;8.606;2023-02-28T08:11:00;8.48;;;6.32;;
10410;SDS011;5251;52.112;8.606;2023-02-28T08:13:28;8.32;;;6.50;;
10410;SDS011;5251;52.112;8.606;2023-02-28T08:15:54;9.85;;;7.43;;
10410;SDS011;5251;52.112;8.606;2023-02-28T08:18:21;7.78;;;6.18;;
10410;SDS011;5251;52.112;8.606;2023-02-28T08:20:46;8.52;;;6.63;;
10410;SDS011;5251;52.112;8.606;2023-02-28T08:23:12;8.98;;;6.13;;
10410;SDS011;5251;52.112;8.606;2023-02-28T08:25:38;7.20;;;5.57;;
10410;SDS011;5251;52.112;8.606;2023-02-28T08:28:04;6.93;;;6.20;;
10410;SDS011;5251;52.112;8.606;2023-02-28T08:30:30;8.65;;;5.75;;
10410;SDS011;5251;52.112;8.606;2023-02-28T08:32:55;6.25;;;5.53;;
10410;SDS011;5251;52.112;8.606;2023-02-28T08:35:21;6.88;;;5.40;;
10410;SDS011;5251;52.112;8.606;2023-02-28T08:37:47;6.03;;;5.00;;
10410;SDS011;5251;52.112;8.606;2023-02-28T08:40:14;7.90;;;5.13;;
10410;SDS011;5251;52.112;8.606;2023-02-28T08:42:43;6.22;;;5.40;;
10410;SDS011;5251;52.112;8.606;2023-02-28T08:45:09;7.70;;;5.47;;
10410;SDS011;5251;52.112;8.606;2023-02-28T08:47:35;7.97;;;5.40;;
10410;SDS011;5251;52.112;8.606;2023-02-28T08:50:01;8.68;;;5.50;;
10410;SDS011;5251;52.112;8.606;2023-02-28T08:52:27;8.10;;;6.10;;
10410;SDS011;5251;52.112;8.606;2023-02-28T08:54:52;9.07;;;5.72;;
10410;SDS011;5251;52.112;8.606;2023-02-28T08:57:18;8.30;;;5.70;;
10410;SDS011;5251;52.112;8.606;2023-02-28T08:59:44;6.57;;;5.85;;
10410;SDS011;5251;52.112;8.606;2023-02-28T09:02:12;6.40;;;5.40;;
10410;SDS011;5251;52.112;8.606;2023-02-28T09:04:39;8.40;;;5.80;;
10410;SDS011;5251;52.112;8.606;2023-02-28T09:07:05;7.50;;;5.88;;
10410;SDS011;5251;52.112;8.606;2023-02-28T09:09:31;9.57;;;6.00;;
10410;SDS011;5251;52.112;8.606;2023-02-28T09:11:57;7.78;;;5.35;;
10410;SDS011;5251;52.112;8.606;2023-02-28T09:14:22;5.82;;;4.68;;
10410;SDS011;5251;52.112;8.606;2023-02-28T09:16:48;6.60;;;4.32;;
10410;SDS011;5251;52.112;8.606;2023-02-28T09:19:14;5.80;;;4.05;;
10410;SDS011;5251;52.112;8.606;2023-02-28T09:21:40;4.07;;;2.95;;
10410;SDS011;5251;52.112;8.606;2023-02-28T09:24:06;4.70;;;3.30;;
10410;SDS011;5251;52.112;8.606;2023-02-28T09:26:32;4.57;;;3.67;;
10410;SDS011;5251;52.112;8.606;2023-02-28T09:28:59;5.85;;;3.75;;
10410;SDS011;5251;52.112;8.606;2023-02-28T09:31:26;3.90;;;2.95;;
10410;SDS011;5251;52.112;8.606;2023-02-28T09:33:54;4.13;;;2.78;;
10410;SDS011;5251;52.112;8.606;2023-02-28T09:36:21;4.38;;;2.65;;
10410;SDS011;5251;52.112;8.606;2023-02-28T09:38:48;3.83;;;2.30;;
10410;SDS011;5251;52.112;8.606;2023-02-28T09:41:17;3.25;;;2.50;;
10410;SDS011;5251;52.112;8.606;2023-02-28T09:43:46;2.40;;;2.20;;
10410;SDS011;5251;52.112;8.606;2023-02-28T09:48:52;4.05;;;2.17;;
10410;SDS011;5251;52.112;8.606;2023-02-28T09:51:28;3.55;;;2.15;;
10410;SDS011;5251;52.112;8.606;2023-02-28T09:54:02;2.58;;;1.90;;
10410;SDS011;5251;52.112;8.606;2023-02-28T09:56:30;2.95;;;1.80;;
10410;SDS011;5251;52.112;8.606;2023-02-28T10:05:02;1.50;;;1.40;;
10410;SDS011;5251;52.112;8.606;2023-02-28T10:15:46;3.05;;;1.90;;
10410;SDS011;5251;52.112;8.606;2023-02-28T10:18:16;2.60;;;1.40;;
10410;SDS011;5251;52.112;8.606;2023-02-28T10:20:56;1.92;;;1.40;;
10410;SDS011;5251;52.112;8.606;2023-02-28T10:23:31;2.78;;;1.60;;
10410;SDS011;5251;52.112;8.606;2023-02-28T10:26:13;1.80;;;1.40;;
10410;SDS011;5251;52.112;8.606;2023-02-28T10:28:41;1.85;;;1.50;;
10410;SDS011;5251;52.112;8.606;2023-02-28T10:31:08;1.63;;;1.23;;
10410;SDS011;5251;52.112;8.606;2023-02-28T10:33:40;2.53;;;1.30;;
10410;SDS011;5251;52.112;8.606;2023-02-28T10:36:06;1.50;;;1.20;;
10410;SDS011;5251;52.112;8.606;2023-02-28T10:38:36;2.33;;;1.50;;
10410;SDS011;5251;52.112;8.606;2023-02-28T10:41:11;1.40;;;1.30;;
10410;SDS011;5251;52.112;8.606;2023-02-28T10:43:41;1.35;;;1.23;;
10410;SDS011;5251;52.112;8.606;2023-02-28T10:48:38;3.40;;;1.40;;
10410;SDS011;5251;52.112;8.606;2023-02-28T10:51:06;1.85;;;1.20;;
10410;SDS011;5251;52.112;8.606;2023-02-28T10:53:39;2.13;;;1.40;;
10410;SDS011;5251;52.112;8.606;2023-02-28T10:58:52;1.48;;;1.33;;
10410;SDS011;5251;52.112;8.606;2023-02-28T11:01:22;2.00;;;1.75;;
10410;SDS011;5251;52.112;8.606;2023-02-28T11:03:50;1.30;;;1.20;;
10410;SDS011;5251;52.112;8.606;2023-02-28T11:06:30;1.95;;;1.55;;
10410;SDS011;5251;52.112;8.606;2023-02-28T11:08:59;2.15;;;1.50;;
10410;SDS011;5251;52.112;8.606;2023-02-28T11:11:43;1.95;;;1.40;;
10410;SDS011;5251;52.112;8.606;2023-02-28T11:14:25;1.83;;;1.30;;
10410;SDS011;5251;52.112;8.606;2023-02-28T11:16:53;1.30;;;1.20;;
10410;SDS011;5251;52.112;8.606;2023-02-28T11:19:35;1.52;;;1.30;;
10410;SDS011;5251;52.112;8.606;2023-02-28T11:22:05;2.58;;;1.38;;
10410;SDS011;5251;52.112;8.606;2023-02-28T11:24:40;1.40;;;1.30;;
10410;SDS011;5251;52.112;8.606;2023-02-28T11:29:57;1.38;;;1.25;;
10410;SDS011;5251;52.112;8.606;2023-02-28T11:32:27;1.55;;;1.40;;
10410;SDS011;5251;52.112;8.606;2023-02-28T11:35:13;2.17;;;1.52;;
10410;SDS011;5251;52.112;8.606;2023-02-28T11:37:40;1.63;;;1.20;;
10410;SDS011;5251;52.112;8.606;2023-02-28T11:40:13;1.63;;;1.10;;
10410;SDS011;5251;52.112;8.606;2023-02-28T11:49:18;2.20;;;1.40;;
10410;SDS011;5251;52.112;8.606;2023-02-28T12:10:37;1.75;;;1.40;;
10410;SDS011;5251;52.112;8.606;2023-02-28T12:24:38;3.35;;;2.00;;
10410;SDS011;5251;52.112;8.606;2023-02-28T12:27:16;2.22;;;1.58;;
10410;SDS011;5251;52.112;8.606;2023-02-28T12:29:50;2.08;;;1.58;;
10410;SDS011;5251;52.112;8.606;2023-02-28T12:32:27;3.53;;;1.80;;
10410;SDS011;5251;52.112;8.606;2023-02-28T12:35:10;2.75;;;1.60;;
10410;SDS011;5251;52.112;8.606;2023-02-28T12:37:41;2.35;;;1.60;;
10410;SDS011;5251;52.112;8.606;2023-02-28T12:40:22;2.35;;;1.65;;
10410;SDS011;5251;52.112;8.606;2023-02-28T12:42:50;1.88;;;1.33;;
10410;SDS011;5251;52.112;8.606;2023-02-28T12:45:24;2.63;;;1.60;;
10410;SDS011;5251;52.112;8.606;2023-02-28T12:47:55;1.75;;;1.58;;
10410;SDS011;5251;52.112;8.606;2023-02-28T12:50:25;2.67;;;1.70;;
10410;SDS011;5251;52.112;8.606;2023-02-28T12:58:15;1.92;;;1.60;;
10410;SDS011;5251;52.112;8.606;2023-02-28T13:09:13;1.88;;;1.48;;
10410;SDS011;5251;52.112;8.606;2023-02-28T13:11:49;1.92;;;1.52;;
10410;SDS011;5251;52.112;8.606;2023-02-28T13:16:57;1.85;;;1.48;;
10410;SDS011;5251;52.112;8.606;2023-02-28T13:19:40;2.35;;;1.48;;
10410;SDS011;5251;52.112;8.606;2023-02-28T13:24:51;2.38;;;1.70;;
10410;SDS011;5251;52.112;8.606;2023-02-28T13:27:37;2.45;;;1.70;;
10410;SDS011;5251;52.112;8.606;2023-02-28T13:33:27;1.90;;;1.67;;
10410;SDS011;5251;52.112;8.606;2023-02-28T13:38:51;2.33;;;1.67;;
10410;SDS011;5251;52.112;8.606;2023-02-28T13:49:27;2.55;;;1.60;;
10410;SDS011;5251;52.112;8.606;2023-02-28T13:52:02;2.40;;;1.67;;
10410;SDS011;5251;52.112;8.606;2023-02-28T13:57:48;2.63;;;1.80;;
10410;SDS011;5251;52.112;8.606;2023-02-28T14:05:43;2.25;;;1.77;;
10410;SDS011;5251;52.112;8.606;2023-02-28T14:08:14;2.42;;;1.73;;
10410;SDS011;5251;52.112;8.606;2023-02-28T14:10:49;2.75;;;2.05;;
10410;SDS011;5251;52.112;8.606;2023-02-28T14:15:56;2.65;;;1.90;;
10410;SDS011;5251;52.112;8.606;2023-02-28T14:18:24;3.28;;;1.80;;
10410;SDS011;5251;52.112;8.606;2023-02-28T14:20:54;2.65;;;2.03;;
10410;SDS011;5251;52.112;8.606;2023-02-28T14:26:03;2.08;;;1.88;;
10410;SDS011;5251;52.112;8.606;2023-02-28T14:31:22;2.30;;;1.63;;
10410;SDS011;5251;52.112;8.606;2023-02-28T14:36:49;1.92;;;1.50;;
10410;SDS011;5251;52.112;8.606;2023-02-28T14:39:22;2.85;;;1.70;;
10410;SDS011;5251;52.112;8.606;2023-02-28T14:41:50;2.92;;;1.70;;
10410;SDS011;5251;52.112;8.606;2023-02-28T14:46:53;1.83;;;1.60;;
10410;SDS011;5251;52.112;8.606;2023-02-28T14:52:05;3.58;;;1.80;;
10410;SDS011;5251;52.112;8.606;2023-02-28T14:54:38;2.30;;;1.52;;
10410;SDS011;5251;52.112;8.606;2023-02-28T14:57:04;2.35;;;1.58;;
10410;SDS011;5251;52.112;8.606;2023-02-28T14:59:31;3.38;;;1.70;;
10410;SDS011;5251;52.112;8.606;2023-02-28T15:04:52;1.65;;;1.50;;
10410;SDS011;5251;52.112;8.606;2023-02-28T15:07:41;3.25;;;1.70;;
10410;SDS011;5251;52.112;8.606;2023-02-28T15:12:36;2.35;;;1.85;;
10410;SDS011;5251;52.112;8.606;2023-02-28T15:15:04;2.40;;;1.90;;
10410;SDS011;5251;52.112;8.606;2023-02-28T15:17:31;2.13;;;1.70;;
10410;SDS011;5251;52.112;8.606;2023-02-28T15:19:57;2.83;;;2.08;;
10410;SDS011;5251;52.112;8.606;2023-02-28T15:22:34;2.10;;;1.90;;
10410;SDS011;5251;52.112;8.606;2023-02-28T15:25:02;2.15;;;1.88;;
10410;SDS011;5251;52.112;8.606;2023-02-28T15:27:32;4.40;;;2.10;;
10410;SDS011;5251;52.112;8.606;2023-02-28T15:30:04;3.30;;;2.15;;
10410;SDS011;5251;52.112;8.606;2023-02-28T15:32:33;2.15;;;1.70;;
10410;SDS011;5251;52.112;8.606;2023-02-28T15:35:18;3.20;;;1.83;;
10410;SDS011;5251;52.112;8.606;2023-02-28T15:37:54;2.70;;;1.80;;
10410;SDS011;5251;52.112;8.606;2023-02-28T15:40:51;2.20;;;1.90;;
10410;SDS011;5251;52.112;8.606;2023-02-28T15:43:28;1.98;;;1.70;;
10410;SDS011;5251;52.112;8.606;2023-02-28T15:48:53;3.78;;;2.15;;
10410;SDS011;5251;52.112;8.606;2023-02-28T15:51:25;1.98;;;1.77;;
10410;SDS011;5251;52.112;8.606;2023-02-28T15:56:47;5.07;;;1.95;;
10410;SDS011;5251;52.112;8.606;2023-02-28T15:59:20;3.38;;;2.03;;
10410;SDS011;5251;52.112;8.606;2023-02-28T16:04:34;3.25;;;2.00;;
10410;SDS011;5251;52.112;8.606;2023-02-28T16:07:01;2.10;;;1.90;;
10410;SDS011;5251;52.112;8.606;2023-02-28T16:09:30;2.22;;;1.90;;
10410;SDS011;5251;52.112;8.606;2023-02-28T16:11:56;2.88;;;1.80;;
10410;SDS011;5251;52.112;8.606;2023-02-28T16:14:26;5.35;;;1.92;;
10410;SDS011;5251;52.112;8.606;2023-02-28T16:17:08;2.55;;;1.85;;
10410;SDS011;5251;52.112;8.606;2023-02-28T16:19:44;3.03;;;1.80;;
10410;SDS011;5251;52.112;8.606;2023-02-28T16:22:10;4.68;;;2.00;;
10410;SDS011;5251;52.112;8.606;2023-02-28T16:24:35;2.72;;;2.03;;
10410;SDS011;5251;52.112;8.606;2023-02-28T16:27:01;4.07;;;2.20;;
10410;SDS011;5251;52.112;8.606;2023-02-28T16:29:31;2.40;;;2.00;;
10410;SDS011;5251;52.112;8.606;2023-02-28T16:32:00;2.90;;;2.00;;
10410;SDS011;5251;52.112;8.606;2023-02-28T16:34:26;3.05;;;2.00;;
10410;SDS011;5251;52.112;8.606;2023-02-28T16:36:52;3.38;;;2.35;;
10410;SDS011;5251;52.112;8.606;2023-02-28T16:39:18;3.05;;;2.17;;
10410;SDS011;5251;52.112;8.606;2023-02-28T16:41:45;2.78;;;1.92;;
10410;SDS011;5251;52.112;8.606;2023-02-28T16:44:14;2.58;;;2.20;;
10410;SDS011;5251;52.112;8.606;2023-02-28T16:46:52;2.50;;;2.03;;
10410;SDS011;5251;52.112;8.606;2023-02-28T16:49:18;3.58;;;1.75;;
10410;SDS011;5251;52.112;8.606;2023-02-28T16:51:44;2.63;;;2.20;;
10410;SDS011;5251;52.112;8.606;2023-02-28T16:54:09;3.47;;;2.25;;
10410;SDS011;5251;52.112;8.606;2023-02-28T16:56:35;4.80;;;2.40;;
10410;SDS011;5251;52.112;8.606;2023-02-28T16:59:01;3.45;;;2.60;;
10410;SDS011;5251;52.112;8.606;2023-02-28T17:01:27;9.00;;;4.55;;
10410;SDS011;5251;52.112;8.606;2023-02-28T17:03:54;8.50;;;4.22;;
10410;SDS011;5251;52.112;8.606;2023-02-28T17:06:21;16.42;;;9.07;;
10410;SDS011;5251;52.112;8.606;2023-02-28T17:08:49;19.05;;;9.07;;
10410;SDS011;5251;52.112;8.606;2023-02-28T17:11:15;13.30;;;6.72;;
10410;SDS011;5251;52.112;8.606;2023-02-28T17:13:42;10.27;;;5.82;;
10410;SDS011;5251;52.112;8.606;2023-02-28T17:16:13;6.43;;;3.67;;
10410;SDS011;5251;52.112;8.606;2023-02-28T17:18:55;3.95;;;2.90;;
10410;SDS011;5251;52.112;8.606;2023-02-28T17:21:23;3.00;;;2.50;;
10410;SDS011;5251;52.112;8.606;2023-02-28T17:23:49;5.55;;;2.83;;
10410;SDS011;5251;52.112;8.606;2023-02-28T17:26:15;2.95;;;2.60;;
10410;SDS011;5251;52.112;8.606;2023-02-28T17:28:44;4.28;;;3.00;;
10410;SDS011;5251;52.112;8.606;2023-02-28T17:31:13;4.18;;;2.80;;
10410;SDS011;5251;52.112;8.606;2023-02-28T17:33:39;7.13;;;3.85;;
10410;SDS011;5251;52.112;8.606;2023-02-28T17:36:06;5.93;;;3.92;;
10410;SDS011;5251;52.112;8.606;2023-02-28T17:38:35;6.90;;;3.90;;
10410;SDS011;5251;52.112;8.606;2023-02-28T17:41:00;8.38;;;4.20;;
10410;SDS011;5251;52.112;8.606;2023-02-28T17:43:26;9.50;;;4.10;;
10410;SDS011;5251;52.112;8.606;2023-02-28T17:45:53;5.75;;;3.88;;
10410;SDS011;5251;52.112;8.606;2023-02-28T17:48:18;5.22;;;3.53;;
10410;SDS011;5251;52.112;8.606;2023-02-28T17:50:44;5.20;;;3.47;;
10410;SDS011;5251;52.112;8.606;2023-02-28T17:53:10;5.22;;;3.83;;
10410;SDS011;5251;52.112;8.606;2023-02-28T17:55:36;4.97;;;3.67;;
10410;SDS011;5251;52.112;8.606;2023-02-28T17:58:02;6.00;;;3.90;;
10410;SDS011;5251;52.112;8.606;2023-02-28T18:00:28;5.53;;;3.83;;
10410;SDS011;5251;52.112;8.606;2023-02-28T18:02:54;5.00;;;3.63;;
10410;SDS011;5251;52.112;8.606;2023-02-28T18:05:19;5.18;;;3.75;;
10410;SDS011;5251;52.112;8.606;2023-02-28T18:07:45;6.15;;;4.45;;
10410;SDS011;5251;52.112;8.606;2023-02-28T18:10:13;5.93;;;4.00;;